createdAt,value
2019-01-26T00:00:45.925Z,2.07
2019-01-26T00:01:55.604Z,2.06
2019-01-26T00:03:05.283Z,2.02
2019-01-26T00:04:14.968Z,2.06
2019-01-26T00:05:24.386Z,2.06
2019-01-26T00:06:34.059Z,2.17
2019-01-26T00:07:43.968Z,2.14
2019-01-26T00:08:53.639Z,2.23
2019-01-26T00:10:03.069Z,2.16
2019-01-26T00:11:12.743Z,2.23
2019-01-26T00:12:22.673Z,2.16
2019-01-26T00:13:32.593Z,2.1
2019-01-26T00:14:42.262Z,2.23
2019-01-26T00:15:51.935Z,2.41
2019-01-26T00:17:01.353Z,2.31
2019-01-26T00:18:11.282Z,2.35
2019-01-26T00:19:21.211Z,2.31
2019-01-26T00:20:30.889Z,2.34
2019-01-26T00:21:43.691Z,2.3
2019-01-26T00:22:52.866Z,2.27
2019-01-26T00:24:02.542Z,2.36
2019-01-26T00:25:12.474Z,2.3
2019-01-26T00:26:21.891Z,2.31
2019-01-26T00:27:31.815Z,2.31
2019-01-26T00:28:41.741Z,2.25
2019-01-26T00:29:51.409Z,2.34
2019-01-26T00:31:01.323Z,2.31
2019-01-26T00:32:10.742Z,2.3
2019-01-26T00:33:20.676Z,2.35
2019-01-26T00:34:30.105Z,2.41
2019-01-26T00:35:39.542Z,2.46
2019-01-26T00:36:48.970Z,2.46
2019-01-26T00:37:58.387Z,2.42
2019-01-26T00:39:08.309Z,2.56
2019-01-26T00:40:17.985Z,2.54
2019-01-26T00:41:27.404Z,2.53
2019-01-26T00:42:37.079Z,2.46
2019-01-26T00:43:46.255Z,2.53
2019-01-26T00:44:56.185Z,2.57
2019-01-26T00:46:05.855Z,2.53
2019-01-26T00:47:15.037Z,2.61
2019-01-26T00:48:24.461Z,2.66
2019-01-26T00:49:33.886Z,2.57
2019-01-26T00:50:43.313Z,2.57
2019-01-26T00:51:53.235Z,2.57
2019-01-26T00:53:03.166Z,2.61
2019-01-26T00:54:12.836Z,2.59
2019-01-26T00:55:22.503Z,2.52
2019-01-26T00:56:31.676Z,2.64
2019-01-26T00:57:41.097Z,2.64
2019-01-26T00:58:50.774Z,2.72
2019-01-26T01:00:00.530Z,2.61
2019-01-26T01:01:10.452Z,2.67
2019-01-26T01:02:20.128Z,2.63
2019-01-26T01:03:29.882Z,2.59
2019-01-26T01:04:39.932Z,2.64
2019-01-26T01:05:49.600Z,2.78
2019-01-26T01:06:59.533Z,2.66
2019-01-26T01:08:09.455Z,2.66
2019-01-26T01:09:18.869Z,2.64
2019-01-26T01:10:28.549Z,2.66
2019-01-26T01:11:37.966Z,2.77
2019-01-26T01:12:47.640Z,2.72
2019-01-26T01:13:57.564Z,2.59
2019-01-26T01:15:06.987Z,2.69
2019-01-26T01:16:16.657Z,2.77
2019-01-26T01:17:26.575Z,2.72
2019-01-26T01:18:35.997Z,2.78
2019-01-26T01:19:45.179Z,2.72
2019-01-26T01:20:55.263Z,2.75
2019-01-26T01:22:07.108Z,2.79
2019-01-26T01:23:16.537Z,2.74
2019-01-26T01:24:26.514Z,2.78
2019-01-26T01:25:36.437Z,2.81
2019-01-26T01:26:46.110Z,2.72
2019-01-26T01:27:55.531Z,2.69
2019-01-26T01:29:05.454Z,2.78
2019-01-26T01:30:15.123Z,2.74
2019-01-26T01:31:24.289Z,2.92
2019-01-26T01:32:33.714Z,2.85
2019-01-26T01:33:43.381Z,2.79
2019-01-26T01:34:53.523Z,2.85
2019-01-26T01:36:03.578Z,2.79
2019-01-26T01:37:13.246Z,2.84
2019-01-26T01:38:22.920Z,2.79
2019-01-26T01:39:32.244Z,2.92
2019-01-26T01:40:42.653Z,2.89
2019-01-26T01:41:52.394Z,2.96
2019-01-26T01:43:02.059Z,2.81
2019-01-26T01:44:11.736Z,2.92
2019-01-26T01:45:21.431Z,2.85
2019-01-26T01:46:31.110Z,2.93
